Agia Irini Chrisoval — SV3972 — position and weather

sailwx.info

Track history (hours):
 
Tides and Currents Weather Stations Pressure Air Temp Water Temp Dewpoint Dewpoint Depression Visibility Wind Speed Wind Dir Waves Ship Positions

Agia Irini Chrisoval

Last reported at 2017-Dec-16 02:44 UTC. Time now 2018-Jan-18 17:24 UTC.
Position N 37°56' E 023°40'.
Warning: this ship's position is 33 days out of date.

Length 22 m.

Type: Fishing. MMSI: 237562000.

Date/timePositionNaut miles runAvg speedWind from/ knotsBaromVisibWave heightAir tempDewpointWater temp
2017-Dec-16 02:44N 37°56' E 023°40'2 7.3
2017-Dec-16 02:31N 37°55' E 023°38'3 6.1
2017-Dec-16 02:01N 37°57' E 023°36'0 0.6
2017-Dec-16 01:30N 37°57' E 023°37'3 6.3
2017-Dec-16 01:01N 37°54' E 023°36'4 8.1
2017-Dec-16 00:31N 37°50' E 023°37'6 0.3
2017-Dec-15 02:07N 37°56' E 023°40'0 0.1
2017-Dec-15 01:01N 37°56' E 023°40'0 0.0
2017-Dec-15 00:31N 37°56' E 023°40'3 0.1
2017-Dec-14 06:25N 37°57' E 023°37'2 3.7
2017-Dec-14 05:52N 37°56' E 023°37'3 8.1
2017-Dec-14 05:30N 37°54' E 023°40'0 0.6
2017-Dec-14 05:00N 37°54' E 023°39'0 0.3
2017-Dec-14 04:30N 37°54' E 023°39'0 0.2
2017-Dec-14 04:00N 37°54' E 023°39'0 0.6
2017-Dec-14 03:30N 37°54' E 023°40'0 0.5
2017-Dec-14 03:00N 37°54' E 023°39'2 3.4
2017-Dec-14 02:30N 37°53' E 023°41'3 5.2
2017-Dec-14 02:00N 37°55' E 023°40'1 1.6
2017-Dec-14 01:13N 37°56' E 023°40'0 0.0
2017-Dec-14 00:59N 37°56' E 023°40'0 0.0
2017-Dec-14 00:30N 37°56' E 023°40'0 0.0
2017-Dec-13 23:59N 37°56' E 023°40'0 0.0
2017-Dec-13 23:28N 37°56' E 023°40'0 0.0
2017-Dec-13 23:00N 37°56' E 023°40'3 5.4
2017-Dec-13 22:30N 37°54' E 023°39'0 0.0
2017-Dec-13 22:00N 37°54' E 023°39'3 6.3
2017-Dec-13 21:30N 37°56' E 023°36'2 0.1
2017-Dec-13 07:38N 37°57' E 023°37'0 0.0
2017-Dec-13 07:30N 37°57' E 023°37'0 0.1
2017-Dec-13 07:00N 37°57' E 023°37'0 0.0
2017-Dec-13 06:30N 37°57' E 023°37'0 0.0
2017-Dec-13 06:00N 37°57' E 023°37'0 0.0
2017-Dec-13 05:30N 37°57' E 023°37'0 0.0
2017-Dec-13 05:00N 37°57' E 023°37'2 4.8
2017-Dec-13 04:30N 37°55' E 023°38'2 4.1
2017-Dec-13 04:00N 37°54' E 023°39'0 0.2
2017-Dec-13 03:30N 37°54' E 023°39'0 0.2
2017-Dec-13 03:00N 37°54' E 023°39'0 0.7
2017-Dec-13 02:30N 37°53' E 023°39'0 0.3
2017-Dec-13 02:00N 37°53' E 023°39'0 0.4
2017-Dec-13 01:30N 37°54' E 023°39'0 0.2
2017-Dec-13 01:00N 37°54' E 023°39'0 0.2
2017-Dec-13 00:30N 37°54' E 023°39'0 0.0
2017-Dec-13 00:00N 37°54' E 023°39'0 0.4
2017-Dec-12 23:30N 37°53' E 023°39'0 0.6
2017-Dec-12 23:00N 37°54' E 023°39'1 1.4
2017-Dec-12 22:30N 37°54' E 023°39'2 3.8
2017-Dec-12 22:00N 37°56' E 023°40'0 0.0
2017-Dec-12 21:30N 37°56' E 023°40'0 0.0
2017-Dec-12 21:00N 37°56' E 023°40'0 0.0
2017-Dec-12 20:30N 37°56' E 023°40'2 3.1
2017-Dec-12 20:00N 37°55' E 023°40'1 2.3
2017-Dec-12 19:30N 37°54' E 023°39'0 0.2
2017-Dec-12 19:00N 37°54' E 023°39'3 7.0
2017-Dec-12 18:30N 37°56' E 023°36'1 0.1
2017-Dec-12 06:32N 37°57' E 023°37'0 0.0
2017-Dec-12 06:30N 37°57' E 023°37'2 4.3
2017-Dec-12 06:00N 37°55' E 023°37'  
2017-Dec-09 00:34N 37°54' E 023°39'0 1.9
2017-Dec-09 00:30N 37°53' E 023°39'1 2.4
2017-Dec-09 00:00N 37°55' E 023°39'2 3.4
2017-Dec-08 23:30N 37°56' E 023°40'3 5.8
2017-Dec-08 23:00N 37°54' E 023°37'1 1.6
2017-Dec-08 22:30N 37°54' E 023°36'  
Track history (hours):
 
Tides and Currents Weather Stations Pressure Air Temp Water Temp Dewpoint Dewpoint Depression Visibility Wind Speed Wind Dir Waves Ship Positions

Agia Irini Chrisoval

Last reported at 2017-Dec-16 02:44 UTC. Time now 2018-Jan-18 17:24 UTC.
Position N 37°56' E 023°40'.
Warning: this ship's position is 33 days out of date.

Length 22 m.

Type: Fishing. MMSI: 237562000.

Date/timePositionNaut miles runAvg speedWind from/ knotsBaromVisibWave heightAir tempDewpointWater temp
2017-Dec-16 02:44N 37°56' E 023°40'2 7.3
2017-Dec-16 02:31N 37°55' E 023°38'3 6.1
2017-Dec-16 02:01N 37°57' E 023°36'0 0.6
2017-Dec-16 01:30N 37°57' E 023°37'3 6.3
2017-Dec-16 01:01N 37°54' E 023°36'4 8.1
2017-Dec-16 00:31N 37°50' E 023°37'6 0.3
2017-Dec-15 02:07N 37°56' E 023°40'0 0.1
2017-Dec-15 01:01N 37°56' E 023°40'0 0.0
2017-Dec-15 00:31N 37°56' E 023°40'3 0.1
2017-Dec-14 06:25N 37°57' E 023°37'2 3.7
2017-Dec-14 05:52N 37°56' E 023°37'3 8.1
2017-Dec-14 05:30N 37°54' E 023°40'0 0.6
2017-Dec-14 05:00N 37°54' E 023°39'0 0.3
2017-Dec-14 04:30N 37°54' E 023°39'0 0.2
2017-Dec-14 04:00N 37°54' E 023°39'0 0.6
2017-Dec-14 03:30N 37°54' E 023°40'0 0.5
2017-Dec-14 03:00N 37°54' E 023°39'2 3.4
2017-Dec-14 02:30N 37°53' E 023°41'3 5.2
2017-Dec-14 02:00N 37°55' E 023°40'1 1.6
2017-Dec-14 01:13N 37°56' E 023°40'0 0.0
2017-Dec-14 00:59N 37°56' E 023°40'0 0.0
2017-Dec-14 00:30N 37°56' E 023°40'0 0.0
2017-Dec-13 23:59N 37°56' E 023°40'0 0.0
2017-Dec-13 23:28N 37°56' E 023°40'0 0.0
2017-Dec-13 23:00N 37°56' E 023°40'3 5.4
2017-Dec-13 22:30N 37°54' E 023°39'0 0.0
2017-Dec-13 22:00N 37°54' E 023°39'3 6.3
2017-Dec-13 21:30N 37°56' E 023°36'2 0.1
2017-Dec-13 07:38N 37°57' E 023°37'0 0.0
2017-Dec-13 07:30N 37°57' E 023°37'0 0.1
2017-Dec-13 07:00N 37°57' E 023°37'0 0.0
2017-Dec-13 06:30N 37°57' E 023°37'0 0.0
2017-Dec-13 06:00N 37°57' E 023°37'0 0.0
2017-Dec-13 05:30N 37°57' E 023°37'0 0.0
2017-Dec-13 05:00N 37°57' E 023°37'2 4.8
2017-Dec-13 04:30N 37°55' E 023°38'2 4.1
2017-Dec-13 04:00N 37°54' E 023°39'0 0.2
2017-Dec-13 03:30N 37°54' E 023°39'0 0.2
2017-Dec-13 03:00N 37°54' E 023°39'0 0.7
2017-Dec-13 02:30N 37°53' E 023°39'0 0.3
2017-Dec-13 02:00N 37°53' E 023°39'0 0.4
2017-Dec-13 01:30N 37°54' E 023°39'0 0.2
2017-Dec-13 01:00N 37°54' E 023°39'0 0.2
2017-Dec-13 00:30N 37°54' E 023°39'0 0.0
2017-Dec-13 00:00N 37°54' E 023°39'0 0.4
2017-Dec-12 23:30N 37°53' E 023°39'0 0.6
2017-Dec-12 23:00N 37°54' E 023°39'1 1.4
2017-Dec-12 22:30N 37°54' E 023°39'2 3.8
2017-Dec-12 22:00N 37°56' E 023°40'0 0.0
2017-Dec-12 21:30N 37°56' E 023°40'0 0.0
2017-Dec-12 21:00N 37°56' E 023°40'0 0.0
2017-Dec-12 20:30N 37°56' E 023°40'2 3.1
2017-Dec-12 20:00N 37°55' E 023°40'1 2.3
2017-Dec-12 19:30N 37°54' E 023°39'0 0.2
2017-Dec-12 19:00N 37°54' E 023°39'3 7.0
2017-Dec-12 18:30N 37°56' E 023°36'1 0.1
2017-Dec-12 06:32N 37°57' E 023°37'0 0.0
2017-Dec-12 06:30N 37°57' E 023°37'2 4.3
2017-Dec-12 06:00N 37°55' E 023°37'  
2017-Dec-09 00:34N 37°54' E 023°39'0 1.9
2017-Dec-09 00:30N 37°53' E 023°39'1 2.4
2017-Dec-09 00:00N 37°55' E 023°39'2 3.4
2017-Dec-08 23:30N 37°56' E 023°40'3 5.8
2017-Dec-08 23:00N 37°54' E 023°37'1 1.6
2017-Dec-08 22:30N 37°54' E 023°36'  

Dump ship's entire track history